Time;durP1;ratioP1;P1;durP2;ratioP2;P2;SDS_P1;SDS_P2;PMS_P1;PMS_P2;Temp;Humidity;BMP_temperature;BMP_pressure;BME280_temperature;BME280_humidity;BME280_pressure;Samples;Min_cycle;Max_cycle;Signal;HPM_P1;HPM_P2
2024/04/15 00:02:30;;;;;;;5.90;3.50;;;;;;;;;;5317827;27;20304;-79
2024/04/15 00:05:37;;;;;;;7.47;3.13;;;;;;;;;;5337940;26;20277;-77
2024/04/15 00:08:42;;;;;;;4.87;3.57;;;;;;;;;;5317279;27;20289;-79
2024/04/15 00:11:47;;;;;;;4.17;3.70;;;;;;;;;;5299159;27;20300;-79
2024/04/15 00:14:52;;;;;;;6.50;3.30;;;;;;;;;;5298297;27;20279;-79
2024/04/15 00:17:56;;;;;;;4.13;3.40;;;;;;;;;;5316753;27;20285;-78
2024/04/15 00:21:04;;;;;;;8.77;3.60;;;;;;;;;;5316596;27;20301;-79
2024/04/15 00:24:09;;;;;;;8.97;3.83;;;;;;;;;;5316852;27;20282;-78
2024/04/15 00:27:15;;;;;;;7.80;3.50;;;;;;;;;;5321376;27;20277;-79
2024/04/15 00:30:19;;;;;;;5.03;3.50;;;;;;;;;;5342625;26;20280;-79
2024/04/15 00:33:23;;;;;;;4.63;3.70;;;;;;;;;;5341055;26;20288;-78
2024/04/15 00:36:28;;;;;;;5.20;3.87;;;;;;;;;;5322440;27;20272;-78
2024/04/15 00:39:32;;;;;;;5.57;4.20;;;;;;;;;;5323216;27;20263;-78
2024/04/15 00:42:37;;;;;;;5.67;3.47;;;;;;;;;;5322856;27;20291;-78
2024/04/15 00:45:42;;;;;;;4.30;3.73;;;;;;;;;;5321965;27;20300;-78
2024/04/15 00:48:47;;;;;;;4.47;3.80;;;;;;;;;;5322537;27;20281;-78
2024/04/15 00:51:50;;;;;;;5.53;3.87;;;;;;;;;;5342495;26;20644;-79
2024/04/15 00:54:56;;;;;;;3.83;3.40;;;;;;;;;;5321544;27;20288;-78
2024/04/15 00:58:01;;;;;;;7.67;3.80;;;;;;;;;;5321533;27;20281;-79
2024/04/15 01:01:06;;;;;;;7.20;3.90;;;;;;;;;;5322606;27;20290;-79
2024/04/15 01:04:10;;;;;;;7.27;3.77;;;;;;;;;;5321406;27;20280;-78
2024/04/15 01:07:15;;;;;;;6.00;3.97;;;;;;;;;;5321264;27;20288;-78
2024/04/15 01:10:20;;;;;;;5.20;3.67;;;;;;;;;;5321367;27;20273;-78
2024/04/15 01:13:24;;;;;;;5.27;3.93;;;;;;;;;;5320242;27;20281;-77
2024/04/15 01:16:38;;;;;;;5.00;3.97;;;;;;;;;;5320453;27;20284;-78
2024/04/15 01:19:42;;;;;;;4.57;3.80;;;;;;;;;;5320421;27;20277;-77
2024/04/15 01:23:05;;;;;;;5.23;3.87;;;;;;;;;;5319084;27;20301;-78
2024/04/15 01:26:09;;;;;;;5.70;4.07;;;;;;;;;;5320091;27;20275;-77
2024/04/15 01:29:13;;;;;;;4.53;3.80;;;;;;;;;;5339804;26;20267;-77
2024/04/15 01:32:18;;;;;;;4.10;3.40;;;;;;;;;;5338294;26;20632;-79
2024/04/15 01:35:22;;;;;;;4.07;3.67;;;;;;;;;;5320590;27;20291;-79
2024/04/15 01:38:27;;;;;;;4.30;3.87;;;;;;;;;;5340295;26;20285;-78
2024/04/15 01:41:31;;;;;;;4.43;3.70;;;;;;;;;;5322154;27;20291;-77
2024/04/15 01:44:36;;;;;;;3.83;3.40;;;;;;;;;;5320339;27;20301;-78
2024/04/15 01:47:44;;;;;;;4.80;3.60;;;;;;;;;;5320284;27;20269;-78
2024/04/15 01:50:49;;;;;;;11.23;3.53;;;;;;;;;;5318893;27;20297;-79
2024/04/15 01:53:53;;;;;;;4.80;3.60;;;;;;;;;;5280599;27;20285;-78
2024/04/15 01:56:57;;;;;;;5.17;3.53;;;;;;;;;;5338631;26;20277;-77
2024/04/15 02:00:06;;;;;;;6.50;4.50;;;;;;;;;;5299759;27;20273;-79
2024/04/15 02:03:20;;;;;;;4.63;4.03;;;;;;;;;;5339073;26;20292;-79
2024/04/15 02:06:24;;;;;;;5.60;3.87;;;;;;;;;;5320220;27;20269;-78
2024/04/15 02:09:28;;;;;;;5.97;4.40;;;;;;;;;;5301381;27;20292;-78
2024/04/15 02:12:32;;;;;;;5.23;3.93;;;;;;;;;;5323536;27;20282;-77
2024/04/15 02:15:37;;;;;;;6.03;4.20;;;;;;;;;;5324113;27;21042;-78
2024/04/15 02:18:41;;;;;;;5.03;4.50;;;;;;;;;;5321902;27;20267;-79
2024/04/15 02:21:45;;;;;;;5.10;4.60;;;;;;;;;;5322299;27;20301;-78
2024/04/15 02:24:50;;;;;;;6.40;4.53;;;;;;;;;;5322807;27;20274;-77
2024/04/15 02:27:54;;;;;;;6.27;4.70;;;;;;;;;;5320990;27;20277;-78
2024/04/15 02:30:59;;;;;;;6.10;4.90;;;;;;;;;;5321101;27;20296;-78
2024/04/15 02:34:04;;;;;;;4.93;4.40;;;;;;;;;;5321421;27;20285;-78
2024/04/15 02:37:08;;;;;;;5.87;5.03;;;;;;;;;;5340258;26;20281;-78
2024/04/15 02:40:13;;;;;;;6.57;4.70;;;;;;;;;;5320724;27;20276;-79
2024/04/15 02:43:17;;;;;;;7.10;4.67;;;;;;;;;;5323078;27;20747;-79
2024/04/15 02:46:22;;;;;;;4.97;4.27;;;;;;;;;;5321849;27;20263;-78
2024/04/15 02:49:26;;;;;;;5.43;4.70;;;;;;;;;;5337529;26;20280;-78
2024/04/15 02:52:31;;;;;;;7.67;4.90;;;;;;;;;;5318368;27;20309;-78
2024/04/15 02:55:35;;;;;;;5.53;4.83;;;;;;;;;;5339225;26;20265;-78
2024/04/15 02:58:40;;;;;;;7.13;4.53;;;;;;;;;;5320038;27;20281;-79
2024/04/15 03:01:44;;;;;;;6.57;4.83;;;;;;;;;;5321163;27;20266;-78
2024/04/15 03:04:49;;;;;;;7.33;5.63;;;;;;;;;;5322089;27;20263;-77
2024/04/15 03:07:54;;;;;;;6.47;4.80;;;;;;;;;;5340160;26;20256;-78
2024/04/15 03:11:07;;;;;;;6.07;4.77;;;;;;;;;;5319716;27;20288;-78
2024/04/15 03:14:12;;;;;;;6.13;5.20;;;;;;;;;;5340541;26;20277;-78
2024/04/15 03:17:16;;;;;;;6.83;5.27;;;;;;;;;;5340393;26;20664;-77
2024/04/15 03:20:22;;;;;;;5.20;4.70;;;;;;;;;;5320969;27;20263;-78
2024/04/15 03:23:26;;;;;;;11.67;5.40;;;;;;;;;;5319917;27;20799;-79
2024/04/15 03:26:31;;;;;;;7.43;5.03;;;;;;;;;;5318688;27;20281;-78
2024/04/15 03:29:35;;;;;;;7.73;5.00;;;;;;;;;;5279380;27;20272;-78
2024/04/15 03:32:40;;;;;;;5.93;4.93;;;;;;;;;;5338468;26;20281;-79
2024/04/15 03:35:44;;;;;;;7.13;5.30;;;;;;;;;;5319413;27;20761;-79
2024/04/15 03:38:49;;;;;;;7.67;5.43;;;;;;;;;;5322148;27;20640;-79
2024/04/15 03:41:54;;;;;;;5.20;4.73;;;;;;;;;;5320584;27;20291;-79
2024/04/15 03:44:58;;;;;;;6.80;6.10;;;;;;;;;;5320449;27;20279;-79
2024/04/15 03:48:02;;;;;;;7.00;5.33;;;;;;;;;;5287816;21;20683;-84
2024/04/15 03:51:09;;;;;;;5.93;5.30;;;;;;;;;;5246777;27;20283;-84
2024/04/15 03:54:14;;;;;;;5.90;5.40;;;;;;;;;;5252161;27;20616;-84
2024/04/15 03:57:18;;;;;;;9.47;6.07;;;;;;;;;;5248798;27;20279;-84
2024/04/15 04:00:24;;;;;;;6.70;5.67;;;;;;;;;;5249935;27;20291;-84
2024/04/15 04:03:27;;;;;;;8.90;6.60;;;;;;;;;;5252411;27;20286;-84
2024/04/15 04:06:31;;;;;;;7.80;6.20;;;;;;;;;;5252080;27;20283;-84
2024/04/15 04:09:36;;;;;;;7.80;6.53;;;;;;;;;;5251989;27;20636;-84
2024/04/15 04:12:41;;;;;;;7.40;6.13;;;;;;;;;;5250592;27;20277;-84
2024/04/15 04:15:45;;;;;;;7.53;5.93;;;;;;;;;;5250781;27;20291;-84
2024/04/15 04:18:49;;;;;;;6.87;6.17;;;;;;;;;;5250409;27;20282;-84
2024/04/15 04:21:54;;;;;;;6.90;5.97;;;;;;;;;;5250224;27;20282;-84
2024/04/15 04:24:58;;;;;;;6.73;5.83;;;;;;;;;;5229797;27;20283;-84
2024/04/15 04:28:03;;;;;;;6.93;6.23;;;;;;;;;;5250195;27;20287;-84
2024/04/15 04:31:07;;;;;;;9.30;6.17;;;;;;;;;;5250008;27;20271;-84
2024/04/15 04:34:12;;;;;;;6.57;5.50;;;;;;;;;;5250858;27;20286;-84
2024/04/15 04:37:16;;;;;;;7.93;6.37;;;;;;;;;;5249535;27;20294;-83
2024/04/15 04:40:20;;;;;;;7.13;5.73;;;;;;;;;;5249630;27;20286;-84
2024/04/15 04:43:25;;;;;;;8.60;6.00;;;;;;;;;;5249946;27;20282;-84
2024/04/15 04:46:29;;;;;;;12.03;6.17;;;;;;;;;;5229110;27;20434;-83
2024/04/15 04:49:34;;;;;;;8.97;5.90;;;;;;;;;;5249061;27;20286;-83
2024/04/15 04:52:38;;;;;;;7.27;6.20;;;;;;;;;;5248607;27;20290;-84
2024/04/15 04:55:42;;;;;;;8.00;5.83;;;;;;;;;;5248871;27;20290;-84
2024/04/15 04:58:48;;;;;;;6.27;5.67;;;;;;;;;;5248580;27;20274;-84
2024/04/15 05:01:52;;;;;;;6.40;5.57;;;;;;;;;;5251016;27;20290;-83
2024/04/15 05:04:57;;;;;;;7.73;5.70;;;;;;;;;;5249077;27;20282;-84
2024/04/15 05:08:01;;;;;;;8.27;6.27;;;;;;;;;;5247803;27;20294;-82
2024/04/15 05:11:06;;;;;;;6.90;6.00;;;;;;;;;;5247282;27;20617;-84
2024/04/15 05:14:10;;;;;;;6.33;5.73;;;;;;;;;;5247198;27;20346;-84
2024/04/15 05:17:15;;;;;;;6.43;5.50;;;;;;;;;;5247910;27;20641;-84
2024/04/15 05:20:19;;;;;;;8.33;5.93;;;;;;;;;;5248179;27;20286;-85
2024/04/15 05:23:23;;;;;;;7.13;6.07;;;;;;;;;;5247438;27;20629;-84
2024/04/15 05:26:27;;;;;;;7.13;6.13;;;;;;;;;;5247499;27;20275;-83
2024/04/15 05:29:32;;;;;;;6.97;6.27;;;;;;;;;;5247895;27;20295;-83
2024/04/15 05:32:36;;;;;;;8.10;6.57;;;;;;;;;;5248080;27;20775;-83
2024/04/15 05:35:42;;;;;;;8.53;6.70;;;;;;;;;;5247851;27;20283;-84
2024/04/15 05:38:47;;;;;;;8.03;5.77;;;;;;;;;;5247411;27;20806;-85
2024/04/15 05:41:51;;;;;;;7.73;6.07;;;;;;;;;;5251029;27;20267;-84
2024/04/15 05:44:55;;;;;;;6.83;6.07;;;;;;;;;;5249837;27;20717;-85
2024/04/15 05:48:00;;;;;;;8.50;5.80;;;;;;;;;;5249520;27;20290;-84
2024/04/15 05:51:04;;;;;;;9.13;5.57;;;;;;;;;;5248544;27;20290;-84
2024/04/15 05:54:08;;;;;;;7.97;5.20;;;;;;;;;;5248994;27;20278;-83
2024/04/15 05:57:12;;;;;;;7.17;5.77;;;;;;;;;;5246273;27;20310;-83
2024/04/15 06:00:18;;;;;;;8.20;5.70;;;;;;;;;;5244781;27;20286;-83
2024/04/15 06:03:23;;;;;;;10.40;6.27;;;;;;;;;;5246772;27;20287;-83
2024/04/15 06:06:27;;;;;;;6.87;5.97;;;;;;;;;;5246971;27;20271;-83
2024/04/15 06:09:33;;;;;;;12.10;6.07;;;;;;;;;;5246948;27;20783;-84
2024/04/15 06:12:39;;;;;;;5.73;4.87;;;;;;;;;;5246597;27;20299;-84
2024/04/15 06:15:43;;;;;;;5.13;4.50;;;;;;;;;;5245669;27;20287;-83
2024/04/15 06:18:48;;;;;;;7.53;4.20;;;;;;;;;;5245884;27;20283;-84
2024/04/15 06:21:52;;;;;;;4.13;3.63;;;;;;;;;;5245499;27;20286;-81
2024/04/15 06:24:56;;;;;;;6.33;3.60;;;;;;;;;;5246300;27;20780;-84
2024/04/15 06:28:01;;;;;;;4.33;3.40;;;;;;;;;;5244734;27;20303;-84
2024/04/15 06:31:05;;;;;;;4.20;2.70;;;;;;;;;;5247027;27;20294;-84
2024/04/15 06:34:09;;;;;;;5.30;2.90;;;;;;;;;;5245253;27;20358;-84
2024/04/15 06:37:13;;;;;;;5.63;3.17;;;;;;;;;;5245414;27;20803;-84
2024/04/15 06:40:17;;;;;;;4.20;3.53;;;;;;;;;;5246287;27;20294;-84
2024/04/15 06:43:21;;;;;;;5.37;3.50;;;;;;;;;;5246192;27;20286;-82
2024/04/15 06:46:25;;;;;;;5.63;3.63;;;;;;;;;;5225887;27;20287;-84
2024/04/15 06:49:30;;;;;;;8.80;3.73;;;;;;;;;;5246487;27;20283;-84
2024/04/15 06:52:34;;;;;;;4.90;4.20;;;;;;;;;;5246008;27;20290;-84
2024/04/15 06:55:39;;;;;;;11.83;4.77;;;;;;;;;;5244688;27;20291;-84
2024/04/15 06:58:44;;;;;;;7.00;4.10;;;;;;;;;;5245820;27;20318;-84
2024/04/15 07:01:48;;;;;;;8.50;4.93;;;;;;;;;;5245663;27;20278;-84
2024/04/15 07:04:53;;;;;;;5.27;4.23;;;;;;;;;;5245728;27;20274;-83
2024/04/15 07:07:57;;;;;;;7.63;4.30;;;;;;;;;;5245218;27;20299;-85
2024/04/15 07:11:01;;;;;;;7.07;3.90;;;;;;;;;;5245845;27;20286;-83
2024/04/15 07:14:06;;;;;;;5.13;3.90;;;;;;;;;;5245766;27;20361;-84
2024/04/15 07:17:11;;;;;;;6.77;4.00;;;;;;;;;;5245753;27;20270;-83
2024/04/15 07:20:15;;;;;;;5.20;3.90;;;;;;;;;;5245800;27;20772;-83
2024/04/15 07:23:19;;;;;;;5.67;3.73;;;;;;;;;;5244304;27;20275;-84
2024/04/15 07:26:24;;;;;;;6.63;3.90;;;;;;;;;;5252865;27;20287;-85
2024/04/15 07:29:28;;;;;;;4.20;3.63;;;;;;;;;;5250424;27;20286;-84
2024/04/15 07:32:32;;;;;;;4.43;3.30;;;;;;;;;;5250618;27;20270;-85
2024/04/15 07:35:37;;;;;;;5.03;3.20;;;;;;;;;;5249232;27;20279;-84
2024/04/15 07:38:41;;;;;;;5.30;3.40;;;;;;;;;;5249099;27;20307;-84
2024/04/15 07:41:47;;;;;;;4.37;3.53;;;;;;;;;;5248428;27;20282;-84
2024/04/15 07:44:51;;;;;;;7.10;4.00;;;;;;;;;;5247684;27;20286;-84
2024/04/15 07:47:55;;;;;;;5.87;3.90;;;;;;;;;;5245151;27;20291;-84
2024/04/15 07:51:00;;;;;;;5.13;3.73;;;;;;;;;;5245138;27;20366;-84
2024/04/15 07:54:03;;;;;;;7.00;3.83;;;;;;;;;;5245072;27;20283;-83
2024/04/15 07:57:10;;;;;;;6.37;3.67;;;;;;;;;;5245304;27;20299;-83
2024/04/15 08:00:14;;;;;;;7.77;3.87;;;;;;;;;;5245158;27;20286;-84
2024/04/15 08:03:20;;;;;;;6.93;4.23;;;;;;;;;;5245103;27;20275;-82
2024/04/15 08:06:24;;;;;;;5.87;3.80;;;;;;;;;;5243861;27;20795;-83
2024/04/15 08:09:30;;;;;;;6.63;3.90;;;;;;;;;;5244890;27;20780;-83
2024/04/15 08:12:34;;;;;;;9.53;4.23;;;;;;;;;;5244835;27;20279;-84
2024/04/15 08:15:42;;;;;;;6.33;4.10;;;;;;;;;;5243768;27;20286;-84
2024/04/15 08:18:48;;;;;;;7.10;3.77;;;;;;;;;;5244363;27;20282;-83
2024/04/15 08:21:52;;;;;;;5.87;4.13;;;;;;;;;;5244693;27;20294;-84
2024/04/15 08:24:57;;;;;;;7.80;4.37;;;;;;;;;;5244576;27;20280;-84
2024/04/15 08:28:01;;;;;;;6.10;4.40;;;;;;;;;;5244170;27;20314;-83
2024/04/15 08:31:05;;;;;;;5.17;3.93;;;;;;;;;;5243437;27;20788;-83
2024/04/15 08:34:09;;;;;;;6.83;4.30;;;;;;;;;;5243416;27;20283;-83
2024/04/15 08:37:14;;;;;;;5.63;4.10;;;;;;;;;;5244273;27;20640;-83
2024/04/15 08:40:19;;;;;;;7.50;4.20;;;;;;;;;;5243005;27;20283;-83
2024/04/15 08:43:28;;;;;;;6.90;3.87;;;;;;;;;;5243135;27;20797;-84
2024/04/15 08:46:44;;;;;;;8.87;4.10;;;;;;;;;;5243057;27;20283;-84
2024/04/15 08:49:49;;;;;;;8.43;4.37;;;;;;;;;;5247757;27;20286;-83
2024/04/15 08:52:55;;;;;;;9.50;4.20;;;;;;;;;;5247551;27;20257;-83
2024/04/15 08:55:59;;;;;;;8.07;4.13;;;;;;;;;;5247728;27;20275;-84
2024/04/15 08:59:04;;;;;;;5.03;4.07;;;;;;;;;;5247577;27;20290;-83
2024/04/15 09:02:14;;;;;;;5.70;4.20;;;;;;;;;;5246226;27;20282;-83
2024/04/15 09:05:18;;;;;;;9.00;4.57;;;;;;;;;;5246342;27;20633;-84
2024/04/15 09:08:22;;;;;;;8.97;4.70;;;;;;;;;;5247591;27;20314;-85
2024/04/15 09:11:33;;;;;;;7.57;4.53;;;;;;;;;;5254978;27;20621;-85
2024/04/15 09:14:37;;;;;;;8.20;4.23;;;;;;;;;;5251846;27;20625;-85
2024/04/15 09:17:42;;;;;;;6.03;4.77;;;;;;;;;;5252928;27;20302;-85
2024/04/15 09:20:47;;;;;;;4.73;4.23;;;;;;;;;;5250472;27;20287;-85
2024/04/15 09:23:54;;;;;;;7.53;4.60;;;;;;;;;;5251157;27;20282;-84
2024/04/15 09:26:58;;;;;;;6.90;4.93;;;;;;;;;;5250464;27;20291;-84
2024/04/15 09:30:04;;;;;;;6.37;4.80;;;;;;;;;;5250345;27;20776;-84
2024/04/15 09:33:13;;;;;;;6.60;4.63;;;;;;;;;;5248090;27;20302;-84
2024/04/15 09:36:17;;;;;;;6.37;5.60;;;;;;;;;;5247340;27;20291;-82
2024/04/15 09:39:21;;;;;;;5.33;4.10;;;;;;;;;;5247001;27;20282;-82
2024/04/15 09:42:26;;;;;;;6.20;4.57;;;;;;;;;;5245960;27;20279;-81
2024/04/15 09:45:31;;;;;;;7.07;4.47;;;;;;;;;;5246829;27;20283;-82
2024/04/15 09:48:39;;;;;;;8.37;4.47;;;;;;;;;;5300582;21;20337;-81
2024/04/15 09:51:47;;;;;;;9.83;5.00;;;;;;;;;;5280872;27;20226;-81
2024/04/15 09:54:56;;;;;;;7.60;4.73;;;;;;;;;;5281825;27;20231;-81
2024/04/15 09:58:03;;;;;;;6.83;4.33;;;;;;;;;;5280266;27;20286;-81
2024/04/15 10:01:07;;;;;;;6.10;4.60;;;;;;;;;;5282197;27;20277;-81
2024/04/15 10:04:21;;;;;;;20.47;14.93;;;;;;;;;;5280994;27;20273;-82
2024/04/15 10:07:28;;;;;;;14.10;9.57;;;;;;;;;;5281746;27;20281;-82
2024/04/15 10:10:33;;;;;;;13.40;9.97;;;;;;;;;;5261093;27;20805;-82
2024/04/15 10:13:38;;;;;;;11.50;8.27;;;;;;;;;;5261348;27;20227;-83
2024/04/15 10:17:04;;;;;;;7.23;5.93;;;;;;;;;;5266569;27;20274;-82
2024/04/15 10:20:10;;;;;;;7.17;5.60;;;;;;;;;;5282089;27;20240;-82
2024/04/15 10:23:17;;;;;;;13.37;4.97;;;;;;;;;;5282030;27;20222;-82
2024/04/15 10:26:32;;;;;;;7.40;3.83;;;;;;;;;;5280855;27;20779;-82
2024/04/15 10:29:40;;;;;;;5.10;3.70;;;;;;;;;;5260904;27;20230;-82
2024/04/15 10:33:00;;;;;;;4.57;3.80;;;;;;;;;;5243480;27;20744;-82
2024/04/15 10:37:17;;;;;;;6.00;3.53;;;;;;;;;;5280231;27;20230;-82
2024/04/15 10:40:48;;;;;;;4.53;3.50;;;;;;;;;;5263714;27;20270;-82
2024/04/15 10:44:06;;;;;;;5.77;4.00;;;;;;;;;;5261347;27;20572;-82
2024/04/15 10:47:21;;;;;;;7.20;6.40;;;;;;;;;;5260684;27;20281;-82
2024/04/15 10:51:42;;;;;;;4.90;3.17;;;;;;;;;;5279998;27;20802;-82
2024/04/15 10:54:47;;;;;;;4.80;2.07;;;;;;;;;;5240913;27;20269;-82
2024/04/15 10:57:52;;;;;;;6.57;2.27;;;;;;;;;;5279891;27;20808;-82
2024/04/15 11:01:05;;;;;;;2.47;1.37;;;;;;;;;;5222554;27;20277;-84
2024/04/15 11:08:06;;;;;;;4.33;1.33;;;;;;;;;;5281270;27;20818;-82
2024/04/15 11:11:12;;;;;;;2.50;1.40;;;;;;;;;;5278787;27;20611;-82
2024/04/15 11:14:21;;;;;;;3.23;1.73;;;;;;;;;;5279631;27;20229;-82
2024/04/15 11:21:26;;;;;;;6.00;1.57;;;;;;;;;;5280579;27;20234;-82
2024/04/15 11:24:43;;;;;;;3.27;1.40;;;;;;;;;;5263638;27;20279;-82
2024/04/15 11:27:52;;;;;;;2.10;1.40;;;;;;;;;;5260222;27;20285;-82
2024/04/15 11:31:01;;;;;;;3.03;1.60;;;;;;;;;;5241405;27;20782;-83
2024/04/15 11:34:08;;;;;;;3.03;1.93;;;;;;;;;;5260890;27;20223;-81
2024/04/15 11:37:13;;;;;;;16.53;9.20;;;;;;;;;;5260144;27;20273;-81
2024/04/15 11:40:20;;;;;;;32.00;13.57;;;;;;;;;;5280976;27;20273;-82
2024/04/15 11:43:24;;;;;;;81.40;25.30;;;;;;;;;;5279625;27;20222;-81
2024/04/15 11:46:28;;;;;;;20.23;7.83;;;;;;;;;;5278507;27;20273;-82
2024/04/15 11:49:32;;;;;;;15.33;6.53;;;;;;;;;;5268076;26;20405;-82
2024/04/15 11:52:39;;;;;;;68.80;26.37;;;;;;;;;;5273820;27;20800;-81
2024/04/15 11:55:44;;;;;;;14.83;9.07;;;;;;;;;;5313425;27;20289;-83
2024/04/15 11:58:49;;;;;;;6.43;5.50;;;;;;;;;;5274726;27;20280;-81
2024/04/15 12:01:56;;;;;;;2.97;2.33;;;;;;;;;;5293688;27;20226;-81
2024/04/15 12:05:00;;;;;;;4.20;2.00;;;;;;;;;;5314041;27;20264;-81
2024/04/15 12:08:05;;;;;;;3.77;2.50;;;;;;;;;;5314341;27;20773;-81
2024/04/15 12:11:12;;;;;;;4.17;2.30;;;;;;;;;;5313845;27;20268;-81
2024/04/15 12:14:16;;;;;;;3.97;2.70;;;;;;;;;;5313419;27;20233;-81
2024/04/15 12:17:21;;;;;;;4.07;2.17;;;;;;;;;;5332519;26;20280;-81
2024/04/15 12:20:26;;;;;;;4.60;3.00;;;;;;;;;;5312505;26;20229;-81
2024/04/15 12:23:30;;;;;;;15.17;8.40;;;;;;;;;;5316518;27;20574;-81
2024/04/15 12:26:34;;;;;;;9.03;5.57;;;;;;;;;;5315575;27;20233;-80
2024/04/15 12:29:39;;;;;;;6.83;3.70;;;;;;;;;;5316508;27;20225;-81
2024/04/15 12:32:43;;;;;;;3.47;2.93;;;;;;;;;;5316190;27;20618;-81
2024/04/15 12:35:49;;;;;;;3.67;3.20;;;;;;;;;;5335216;26;20218;-81
2024/04/15 12:38:53;;;;;;;3.03;2.70;;;;;;;;;;5317222;27;20626;-83
2024/04/15 12:41:58;;;;;;;3.77;2.10;;;;;;;;;;5315056;27;20233;-81
2024/04/15 12:45:03;;;;;;;5.17;2.40;;;;;;;;;;5315029;27;20575;-81
2024/04/15 12:48:20;;;;;;;4.20;2.20;;;;;;;;;;5315151;27;20292;-82
2024/04/15 12:51:24;;;;;;;2.23;1.83;;;;;;;;;;5315270;27;20230;-82
2024/04/15 12:54:29;;;;;;;3.97;2.37;;;;;;;;;;5334478;26;20276;-81
2024/04/15 12:57:33;;;;;;;3.30;2.10;;;;;;;;;;5316034;27;20272;-81
2024/04/15 13:00:37;;;;;;;2.57;1.70;;;;;;;;;;5315443;27;20757;-81
2024/04/15 13:03:41;;;;;;;2.30;1.53;;;;;;;;;;5316203;27;20221;-81
2024/04/15 13:06:46;;;;;;;5.20;1.80;;;;;;;;;;5316234;27;20234;-81
2024/04/15 13:09:50;;;;;;;5.03;2.10;;;;;;;;;;5314783;27;20230;-82
2024/04/15 13:12:54;;;;;;;2.90;1.77;;;;;;;;;;5315833;27;20221;-82
2024/04/15 13:15:58;;;;;;;3.70;1.50;;;;;;;;;;5314542;27;20264;-82
2024/04/15 13:19:03;;;;;;;3.13;1.70;;;;;;;;;;5316632;27;20281;-82
2024/04/15 13:22:11;;;;;;;3.70;2.00;;;;;;;;;;5315967;27;20217;-82
2024/04/15 13:25:24;;;;;;;3.90;1.83;;;;;;;;;;5314590;27;20277;-82
2024/04/15 13:28:29;;;;;;;2.47;1.90;;;;;;;;;;5315302;26;20288;-82
2024/04/15 13:31:35;;;;;;;2.77;2.10;;;;;;;;;;5315186;27;20280;-82
2024/04/15 13:34:42;;;;;;;5.13;2.10;;;;;;;;;;5294665;27;20229;-81
2024/04/15 13:37:47;;;;;;;3.70;2.67;;;;;;;;;;5315488;27;20633;-81
2024/04/15 13:40:53;;;;;;;7.73;2.70;;;;;;;;;;5314924;27;20764;-82
2024/04/15 13:43:57;;;;;;;3.90;2.50;;;;;;;;;;5315675;27;20229;-82
2024/04/15 13:47:01;;;;;;;3.10;2.60;;;;;;;;;;5315515;27;20276;-82
2024/04/15 13:50:06;;;;;;;3.47;2.50;;;;;;;;;;5314492;27;20234;-82
2024/04/15 13:53:11;;;;;;;5.20;2.77;;;;;;;;;;5315692;27;20229;-82
2024/04/15 13:56:16;;;;;;;3.97;2.43;;;;;;;;;;5334134;26;20276;-82
2024/04/15 13:59:21;;;;;;;4.87;3.40;;;;;;;;;;5334705;26;20591;-83
2024/04/15 14:02:26;;;;;;;4.60;3.33;;;;;;;;;;5314203;27;20310;-83
2024/04/15 14:05:31;;;;;;;6.30;2.60;;;;;;;;;;5334332;26;20586;-83
2024/04/15 14:08:35;;;;;;;3.80;2.77;;;;;;;;;;5315691;27;20285;-82
2024/04/15 14:11:40;;;;;;;4.23;3.20;;;;;;;;;;5315910;27;20234;-83
2024/04/15 14:14:45;;;;;;;4.00;2.80;;;;;;;;;;5334920;26;20222;-82
2024/04/15 14:17:49;;;;;;;4.77;3.10;;;;;;;;;;5315676;27;20276;-82
2024/04/15 14:20:54;;;;;;;6.57;4.93;;;;;;;;;;5334830;26;20256;-82
2024/04/15 14:23:58;;;;;;;4.20;2.60;;;;;;;;;;5315525;27;20233;-82
2024/04/15 14:27:03;;;;;;;6.37;2.80;;;;;;;;;;5315069;27;20342;-82
2024/04/15 14:30:08;;;;;;;4.93;2.60;;;;;;;;;;5315877;27;20225;-82
2024/04/15 14:33:13;;;;;;;6.67;2.70;;;;;;;;;;5316063;27;20614;-83
2024/04/15 14:36:17;;;;;;;5.03;2.47;;;;;;;;;;5315991;27;20213;-83
2024/04/15 14:39:21;;;;;;;5.57;3.07;;;;;;;;;;5317693;27;20273;-82
2024/04/15 14:42:26;;;;;;;4.40;2.53;;;;;;;;;;5316152;27;20222;-83
2024/04/15 14:45:32;;;;;;;3.87;2.40;;;;;;;;;;5315930;27;20269;-83
2024/04/15 14:48:36;;;;;;;6.70;2.83;;;;;;;;;;5316452;27;20267;-83
2024/04/15 14:51:42;;;;;;;5.07;2.50;;;;;;;;;;5313873;27;20225;-82
2024/04/15 14:54:46;;;;;;;3.63;2.33;;;;;;;;;;5294075;27;20229;-84
2024/04/15 14:57:51;;;;;;;6.83;3.90;;;;;;;;;;5315007;27;20280;-83
2024/04/15 15:00:55;;;;;;;18.67;11.67;;;;;;;;;;5314757;27;20268;-83
2024/04/15 15:03:59;;;;;;;3.87;2.47;;;;;;;;;;5314986;27;20225;-84
2024/04/15 15:07:05;;;;;;;4.33;2.10;;;;;;;;;;5314705;27;20246;-83
2024/04/15 15:10:09;;;;;;;3.67;2.13;;;;;;;;;;5314721;27;20229;-83
2024/04/15 15:13:13;;;;;;;4.37;3.07;;;;;;;;;;5315084;27;20229;-83
2024/04/15 15:16:18;;;;;;;2.90;2.60;;;;;;;;;;5332977;26;20225;-83
2024/04/15 15:19:23;;;;;;;3.30;2.53;;;;;;;;;;5314140;27;20225;-83
2024/04/15 15:22:28;;;;;;;4.40;2.83;;;;;;;;;;5315335;27;20225;-83
2024/04/15 15:25:32;;;;;;;6.17;3.27;;;;;;;;;;5314866;27;20281;-82
2024/04/15 15:28:36;;;;;;;6.13;3.30;;;;;;;;;;5314115;27;20280;-83
2024/04/15 15:31:41;;;;;;;4.07;3.10;;;;;;;;;;5316779;27;20269;-83
2024/04/15 15:34:45;;;;;;;4.40;3.00;;;;;;;;;;5317920;27;20221;-83
2024/04/15 15:37:50;;;;;;;6.43;3.50;;;;;;;;;;5314286;27;20276;-82
2024/04/15 15:40:54;;;;;;;5.93;3.50;;;;;;;;;;5333712;26;20276;-83
2024/04/15 15:44:32;;;;;;;11.20;5.17;;;;;;;;;;5315061;27;20284;-84
2024/04/15 15:47:40;;;;;;;11.67;3.90;;;;;;;;;;5293954;27;20277;-84
2024/04/15 15:50:44;;;;;;;9.47;2.00;;;;;;;;;;5293285;27;20809;-83
2024/04/15 15:53:48;;;;;;;2.97;1.73;;;;;;;;;;5314210;27;20226;-83
2024/04/15 15:56:53;;;;;;;26.70;14.70;;;;;;;;;;5320152;27;20273;-84
2024/04/15 15:59:57;;;;;;;13.37;7.57;;;;;;;;;;5324030;27;20207;-84
2024/04/15 16:03:03;;;;;;;10.27;4.23;;;;;;;;;;5341531;26;20229;-84
2024/04/15 16:06:07;;;;;;;6.23;2.50;;;;;;;;;;5322505;27;20207;-84
2024/04/15 16:09:12;;;;;;;4.43;1.50;;;;;;;;;;5321611;27;20296;-84
2024/04/15 16:12:17;;;;;;;1.80;1.40;;;;;;;;;;5321941;27;20200;-84
2024/04/15 16:15:21;;;;;;;5.13;1.40;;;;;;;;;;5319774;27;20214;-84
2024/04/15 16:18:25;;;;;;;8.90;1.67;;;;;;;;;;5322376;27;20797;-84
2024/04/15 16:21:37;;;;;;;3.10;1.70;;;;;;;;;;5341885;26;20229;-84
2024/04/15 16:24:42;;;;;;;4.70;2.10;;;;;;;;;;5342911;26;20299;-84
2024/04/15 16:27:47;;;;;;;7.37;1.90;;;;;;;;;;5322481;27;20602;-84
2024/04/15 16:30:51;;;;;;;20.97;11.47;;;;;;;;;;5322224;27;20272;-84
2024/04/15 16:33:56;;;;;;;12.97;7.47;;;;;;;;;;5322961;27;20225;-83
2024/04/15 16:37:00;;;;;;;6.70;2.30;;;;;;;;;;5282395;27;20218;-84
2024/04/15 16:40:05;;;;;;;7.60;3.07;;;;;;;;;;5343209;26;20251;-84
2024/04/15 16:43:09;;;;;;;15.20;3.33;;;;;;;;;;5325081;27;20203;-84
2024/04/15 16:46:14;;;;;;;5.90;2.33;;;;;;;;;;5325401;27;20259;-85
2024/04/15 16:49:19;;;;;;;3.73;1.70;;;;;;;;;;5324413;27;20260;-83
2024/04/15 16:52:23;;;;;;;6.17;2.10;;;;;;;;;;5322797;27;20200;-84
2024/04/15 16:55:27;;;;;;;5.20;1.67;;;;;;;;;;5326708;27;20271;-85
2024/04/15 16:58:32;;;;;;;5.53;2.17;;;;;;;;;;5328185;27;20259;-85
2024/04/15 17:01:36;;;;;;;7.97;2.10;;;;;;;;;;5328158;27;20260;-84
2024/04/15 17:04:41;;;;;;;8.40;2.10;;;;;;;;;;5327120;27;20208;-84
2024/04/15 17:07:45;;;;;;;4.03;1.80;;;;;;;;;;5344760;26;20340;-84
2024/04/15 17:10:50;;;;;;;9.77;2.40;;;;;;;;;;5326459;27;20246;-84
2024/04/15 17:13:54;;;;;;;6.23;2.27;;;;;;;;;;5346631;26;20208;-84
2024/04/15 17:16:59;;;;;;;4.20;2.50;;;;;;;;;;5327144;27;20252;-84
2024/04/15 17:20:03;;;;;;;11.10;2.40;;;;;;;;;;5345196;26;20211;-83
2024/04/15 17:23:08;;;;;;;8.07;2.83;;;;;;;;;;5326232;27;20207;-84
2024/04/15 17:26:12;;;;;;;9.70;2.80;;;;;;;;;;5326195;27;20259;-84
2024/04/15 17:29:17;;;;;;;9.20;2.93;;;;;;;;;;5325453;27;20204;-84
2024/04/15 17:32:26;;;;;;;4.80;2.83;;;;;;;;;;5326319;27;20247;-85
2024/04/15 17:35:30;;;;;;;4.73;2.90;;;;;;;;;;5325874;27;20203;-84
2024/04/15 17:38:35;;;;;;;5.57;2.70;;;;;;;;;;5316827;26;20335;-83
2024/04/15 17:41:44;;;;;;;8.73;2.80;;;;;;;;;;5324285;27;20261;-84
2024/04/15 17:44:49;;;;;;;6.30;3.13;;;;;;;;;;5343387;26;20232;-84
2024/04/15 17:47:53;;;;;;;7.00;2.60;;;;;;;;;;5324527;27;20255;-84
2024/04/15 17:50:58;;;;;;;4.27;3.40;;;;;;;;;;5323746;27;20211;-85
2024/04/15 17:54:04;;;;;;;6.37;3.20;;;;;;;;;;5324102;27;20200;-84
2024/04/15 17:57:10;;;;;;;4.67;3.50;;;;;;;;;;5322825;27;20206;-84
2024/04/15 18:00:19;;;;;;;7.00;3.77;;;;;;;;;;5303344;27;20234;-85
2024/04/15 18:03:23;;;;;;;5.77;3.20;;;;;;;;;;5324484;27;20207;-85
2024/04/15 18:06:29;;;;;;;8.20;3.60;;;;;;;;;;5304407;27;20204;-85
2024/04/15 18:09:34;;;;;;;5.60;3.00;;;;;;;;;;5323135;27;20269;-84
2024/04/15 18:12:41;;;;;;;6.20;3.27;;;;;;;;;;5322197;27;20211;-84
2024/04/15 18:15:45;;;;;;;5.83;3.00;;;;;;;;;;5322842;27;20255;-84
2024/04/15 18:18:50;;;;;;;8.27;3.90;;;;;;;;;;5301787;27;20277;-85
2024/04/15 18:21:55;;;;;;;4.07;3.17;;;;;;;;;;5283414;27;20213;-84
2024/04/15 18:25:00;;;;;;;4.03;3.17;;;;;;;;;;5323269;27;20248;-85
2024/04/15 18:28:14;;;;;;;6.77;3.23;;;;;;;;;;5303255;27;20280;-85
2024/04/15 18:31:19;;;;;;;7.17;3.40;;;;;;;;;;5322049;27;20247;-84
2024/04/15 18:34:27;;;;;;;4.77;3.33;;;;;;;;;;5323753;27;20259;-84
2024/04/15 18:37:35;;;;;;;6.90;3.37;;;;;;;;;;5341510;26;20267;-85
2024/04/15 18:40:44;;;;;;;4.83;3.50;;;;;;;;;;5322067;27;20247;-84